createdAt,value
2018-06-05T00:02:26.988Z,13.30
2018-06-05T00:04:58.526Z,13.30
2018-06-05T00:07:30.412Z,13.30
2018-06-05T00:10:02.398Z,13.20
2018-06-05T00:12:33.523Z,13.10
2018-06-05T00:15:05.305Z,13.10
2018-06-05T00:17:36.648Z,13.10
2018-06-05T00:20:08.802Z,13.10
2018-06-05T00:22:39.739Z,13.10
2018-06-05T00:25:10.994Z,13.00
2018-06-05T00:27:43.069Z,13.00
2018-06-05T00:30:14.406Z,13.00
2018-06-05T00:32:45.628Z,13.00
2018-06-05T00:35:17.621Z,13.00
2018-06-05T00:37:49.598Z,12.90
2018-06-05T00:40:20.871Z,12.90
2018-06-05T00:42:51.385Z,12.80
2018-06-05T00:45:23.352Z,12.80
2018-06-05T00:47:54.211Z,12.70
2018-06-05T00:50:25.405Z,12.70
2018-06-05T00:52:57.714Z,12.60
2018-06-05T00:55:29.616Z,12.50
2018-06-05T00:58:01.528Z,12.50
2018-06-05T01:00:32.841Z,12.50
2018-06-05T01:03:04.293Z,12.50
2018-06-05T01:05:36.222Z,12.50
2018-06-05T01:08:07.735Z,12.40
2018-06-05T01:10:38.763Z,12.40
2018-06-05T01:13:10.074Z,12.40
2018-06-05T01:15:42.137Z,12.40
2018-06-05T01:18:13.305Z,12.40
2018-06-05T01:20:44.550Z,12.40
2018-06-05T01:23:22.843Z,12.40
2018-06-05T01:25:54.803Z,12.30
2018-06-05T01:28:26.197Z,12.20
2018-06-05T01:30:57.633Z,12.20
2018-06-05T01:33:29.214Z,12.20
2018-06-05T01:36:01.245Z,12.20
2018-06-05T01:38:32.185Z,12.30
2018-06-05T01:41:03.597Z,12.30
2018-06-05T01:43:35.709Z,12.30
2018-06-05T01:46:07.928Z,12.30
2018-06-05T01:48:39.165Z,12.30
2018-06-05T01:51:10.171Z,12.20
2018-06-05T01:53:42.619Z,12.20
2018-06-05T01:56:14.583Z,12.20
2018-06-05T01:58:46.032Z,12.20
2018-06-05T02:01:17.377Z,12.20
2018-06-05T02:03:49.216Z,12.20
2018-06-05T02:06:20.676Z,12.20
2018-06-05T02:08:52.050Z,12.10
2018-06-05T02:11:23.856Z,12.20
2018-06-05T02:13:55.902Z,12.20
2018-06-05T02:16:27.206Z,12.20
2018-06-05T02:18:58.504Z,12.10
2018-06-05T02:21:30.214Z,12.10
2018-06-05T02:24:02.204Z,12.00
2018-06-05T02:26:33.546Z,12.00
2018-06-05T02:29:04.974Z,12.00
2018-06-05T02:31:37.138Z,12.00
2018-06-05T02:34:09.207Z,11.90
2018-06-05T02:36:40.504Z,11.90
2018-06-05T02:39:12.351Z,11.80
2018-06-05T02:41:44.432Z,11.80
2018-06-05T02:44:15.692Z,11.80
2018-06-05T02:46:47.181Z,11.80
2018-06-05T02:49:19.770Z,11.80
2018-06-05T02:51:50.070Z,11.80
2018-06-05T02:54:21.408Z,11.90
2018-06-05T02:56:53.176Z,11.80
2018-06-05T02:59:25.147Z,11.70
2018-06-05T03:01:57.072Z,11.70
2018-06-05T03:04:28.288Z,11.70
2018-06-05T03:06:59.777Z,11.70
2018-06-05T03:09:31.392Z,11.80
2018-06-05T03:12:03.278Z,11.70
2018-06-05T03:14:34.266Z,11.80
2018-06-05T03:17:05.530Z,11.80
2018-06-05T03:19:37.506Z,11.70
2018-06-05T03:22:08.416Z,11.80
2018-06-05T03:24:40.682Z,11.70
2018-06-05T03:27:11.812Z,11.70
2018-06-05T03:29:43.494Z,11.80
2018-06-05T03:32:14.812Z,11.80
2018-06-05T03:34:46.186Z,11.80
2018-06-05T03:37:20.279Z,11.90
2018-06-05T03:39:52.181Z,11.90
2018-06-05T03:42:23.638Z,11.90
2018-06-05T03:44:54.810Z,11.90
2018-06-05T03:47:26.980Z,12.00
2018-06-05T03:49:59.066Z,12.00
2018-06-05T03:52:30.803Z,12.00
2018-06-05T03:55:02.258Z,12.10
2018-06-05T03:57:34.351Z,12.20
2018-06-05T04:00:06.912Z,12.30
2018-06-05T04:02:38.284Z,12.40
2018-06-05T04:05:09.689Z,12.50
2018-06-05T04:07:41.818Z,12.60
2018-06-05T04:10:13.026Z,12.80
2018-06-05T04:12:44.144Z,13.00
2018-06-05T04:15:16.348Z,13.10
2018-06-05T04:17:48.780Z,13.20
2018-06-05T04:20:20.266Z,13.30
2018-06-05T04:22:51.907Z,13.40
2018-06-05T04:25:24.310Z,13.50
2018-06-05T04:27:56.334Z,13.60
2018-06-05T04:30:27.720Z,13.70
2018-06-05T04:32:59.396Z,13.80
2018-06-05T04:35:38.034Z,13.80
2018-06-05T04:38:09.878Z,13.90
2018-06-05T04:40:41.263Z,13.90
2018-06-05T04:43:12.602Z,14.00
2018-06-05T04:45:44.382Z,14.00
2018-06-05T04:48:15.960Z,14.10
2018-06-05T04:50:47.293Z,14.20
2018-06-05T04:53:19.388Z,14.20
2018-06-05T04:55:51.002Z,14.20
2018-06-05T04:58:22.971Z,14.30
2018-06-05T05:00:54.565Z,14.40
2018-06-05T05:03:26.939Z,14.50
2018-06-05T05:05:59.362Z,14.60
2018-06-05T05:08:32.038Z,14.60
2018-06-05T05:11:03.180Z,14.70
2018-06-05T05:13:34.954Z,14.70
2018-06-05T05:16:07.536Z,14.70
2018-06-05T05:18:39.484Z,14.80
2018-06-05T05:21:11.144Z,14.90
2018-06-05T05:23:43.518Z,14.90
2018-06-05T05:26:16.219Z,15.00
2018-06-05T05:28:47.589Z,15.10
2018-06-05T05:31:19.594Z,15.20
2018-06-05T05:33:51.878Z,15.20
2018-06-05T05:36:23.267Z,15.30
2018-06-05T05:38:54.869Z,15.40
2018-06-05T05:41:26.402Z,15.50
2018-06-05T05:43:58.674Z,15.60
2018-06-05T05:46:30.246Z,15.60
2018-06-05T05:49:01.637Z,15.70
2018-06-05T05:51:33.376Z,15.70
2018-06-05T05:54:04.844Z,15.70
2018-06-05T05:56:36.246Z,15.70
2018-06-05T05:59:07.940Z,15.70
2018-06-05T06:01:40.081Z,15.90
2018-06-05T06:04:12.108Z,15.90
2018-06-05T06:06:44.420Z,15.80
2018-06-05T06:09:16.469Z,15.80
2018-06-05T06:11:48.644Z,15.80
2018-06-05T06:14:20.276Z,15.80
2018-06-05T06:16:51.750Z,15.80
2018-06-05T06:19:23.562Z,15.70
2018-06-05T06:21:55.830Z,15.70
2018-06-05T06:24:27.465Z,15.70
2018-06-05T06:26:59.054Z,15.70
2018-06-05T06:29:30.728Z,15.70
2018-06-05T06:32:02.590Z,15.70
2018-06-05T06:34:34.163Z,15.70
2018-06-05T06:37:05.541Z,15.70
2018-06-05T06:39:37.846Z,15.70
2018-06-05T06:42:08.493Z,15.80
2018-06-05T06:44:39.952Z,15.70
2018-06-05T06:47:11.768Z,15.80
2018-06-05T06:49:43.793Z,15.80
2018-06-05T06:52:15.973Z,15.90
2018-06-05T06:54:47.542Z,15.90
2018-06-05T06:57:20.181Z,15.80
2018-06-05T06:59:52.520Z,15.70
2018-06-05T07:02:24.039Z,15.70
2018-06-05T07:04:55.640Z,15.70
2018-06-05T07:07:27.173Z,15.70
2018-06-05T07:09:59.416Z,15.80
2018-06-05T07:12:30.821Z,15.80
2018-06-05T07:15:02.284Z,15.90
2018-06-05T07:17:34.652Z,16.00
2018-06-05T07:20:07.674Z,16.10
2018-06-05T07:22:39.301Z,16.20
2018-06-05T07:25:10.800Z,16.30
2018-06-05T07:27:43.138Z,16.40
2018-06-05T07:30:14.625Z,16.40
2018-06-05T07:32:47.374Z,16.50
2018-06-05T07:35:19.577Z,16.50
2018-06-05T07:37:51.221Z,16.50
2018-06-05T07:40:22.723Z,16.40
2018-06-05T07:42:54.384Z,16.40
2018-06-05T07:45:31.781Z,16.40
2018-06-05T07:48:02.461Z,16.40
2018-06-05T07:50:33.856Z,16.30
2018-06-05T07:53:05.205Z,16.20
2018-06-05T07:55:36.920Z,16.20
2018-06-05T07:58:09.920Z,16.20
2018-06-05T08:00:41.581Z,16.30
2018-06-05T08:03:13.164Z,16.40
2018-06-05T08:05:45.413Z,16.50
2018-06-05T08:08:16.808Z,16.60
2018-06-05T08:10:49.222Z,16.70
2018-06-05T08:13:21.781Z,16.70
2018-06-05T08:15:54.077Z,16.70
2018-06-05T08:18:25.664Z,16.70
2018-06-05T08:20:57.156Z,16.50
2018-06-05T08:23:29.252Z,16.40
2018-06-05T08:26:01.543Z,16.30
2018-06-05T08:28:33.241Z,16.30
2018-06-05T08:31:04.438Z,16.30
2018-06-05T08:33:36.612Z,16.20
2018-06-05T08:36:08.800Z,16.20
2018-06-05T08:38:40.922Z,16.30
2018-06-05T08:41:12.562Z,16.40
2018-06-05T08:43:44.901Z,16.60
2018-06-05T08:46:17.028Z,16.70
2018-06-05T08:48:49.020Z,16.60
2018-06-05T08:51:20.346Z,16.40
2018-06-05T08:53:51.814Z,16.20
2018-06-05T08:56:23.427Z,16.20
2018-06-05T08:58:55.214Z,16.30
2018-06-05T09:01:26.639Z,16.30
2018-06-05T09:03:59.212Z,16.50
2018-06-05T09:06:30.760Z,16.80
2018-06-05T09:09:02.440Z,17.00
2018-06-05T09:11:34.515Z,17.10
2018-06-05T09:14:06.910Z,17.10
2018-06-05T09:16:38.542Z,17.10
2018-06-05T09:19:10.090Z,17.10
2018-06-05T09:21:41.741Z,17.10
2018-06-05T09:24:13.942Z,17.20
2018-06-05T09:26:45.856Z,17.20
2018-06-05T09:29:18.103Z,17.20
2018-06-05T09:31:49.694Z,17.10
2018-06-05T09:34:26.348Z,16.90
2018-06-05T09:36:57.803Z,16.90
2018-06-05T09:39:28.936Z,16.90
2018-06-05T09:41:59.674Z,16.90
2018-06-05T09:44:30.108Z,16.80
2018-06-05T09:47:02.682Z,16.90
2018-06-05T09:49:34.572Z,17.00
2018-06-05T09:52:07.655Z,17.20
2018-06-05T09:54:39.062Z,17.30
2018-06-05T09:57:10.616Z,17.30
2018-06-05T09:59:43.286Z,17.30
2018-06-05T10:02:14.841Z,17.30
2018-06-05T10:04:46.135Z,17.50
2018-06-05T10:07:19.037Z,17.70
2018-06-05T10:09:51.090Z,17.90
2018-06-05T10:12:23.026Z,17.90
2018-06-05T10:14:55.089Z,17.90
2018-06-05T10:17:27.319Z,17.90
2018-06-05T10:19:59.359Z,17.70
2018-06-05T10:22:30.741Z,17.70
2018-06-05T10:25:02.125Z,17.50
2018-06-05T10:27:34.368Z,17.40
2018-06-05T10:30:06.645Z,17.50
2018-06-05T10:32:41.411Z,17.80
2018-06-05T10:35:12.985Z,18.10
2018-06-05T10:37:44.642Z,18.10
2018-06-05T10:40:16.707Z,18.20
2018-06-05T10:42:49.354Z,18.00
2018-06-05T10:45:22.870Z,18.10
2018-06-05T10:47:55.569Z,18.30
2018-06-05T10:50:27.636Z,18.20
2018-06-05T10:52:59.708Z,18.10
2018-06-05T10:55:32.961Z,18.20
2018-06-05T10:58:05.489Z,18.30
2018-06-05T11:00:36.469Z,18.50
2018-06-05T11:03:08.801Z,18.70
2018-06-05T11:05:42.149Z,18.70
2018-06-05T11:08:14.815Z,18.30
2018-06-05T11:10:48.116Z,18.10
2018-06-05T11:13:21.553Z,18.10
2018-06-05T11:15:54.475Z,18.20
2018-06-05T11:18:26.575Z,18.20
2018-06-05T11:20:58.753Z,18.20
2018-06-05T11:23:31.821Z,18.20
2018-06-05T11:26:04.739Z,18.40
2018-06-05T11:28:36.892Z,18.60
2018-06-05T11:31:09.547Z,18.70
2018-06-05T11:33:42.491Z,18.60
2018-06-05T11:36:16.250Z,18.40
2018-06-05T11:38:48.483Z,18.40
2018-06-05T11:41:21.583Z,18.40
2018-06-05T11:43:54.268Z,18.60
2018-06-05T11:46:27.002Z,19.00
2018-06-05T11:49:00.182Z,19.50
2018-06-05T11:51:32.997Z,19.60
2018-06-05T11:54:05.412Z,19.60
2018-06-05T11:56:38.630Z,19.30
2018-06-05T11:59:10.799Z,18.80
2018-06-05T12:01:43.479Z,18.50
2018-06-05T12:04:17.640Z,18.40
2018-06-05T12:06:50.830Z,18.30
2018-06-05T12:09:24.329Z,18.30
2018-06-05T12:11:57.130Z,18.40
2018-06-05T12:14:30.327Z,18.70
2018-06-05T12:17:02.596Z,19.00
2018-06-05T12:19:35.566Z,19.10
2018-06-05T12:22:08.251Z,19.20
2018-06-05T12:24:40.300Z,19.30
2018-06-05T12:27:12.641Z,19.40
2018-06-05T12:29:44.497Z,19.60
2018-06-05T12:32:16.369Z,19.60
2018-06-05T12:34:48.525Z,19.50
2018-06-05T12:37:21.130Z,19.60
2018-06-05T12:39:54.316Z,19.60
2018-06-05T12:42:26.256Z,19.60
2018-06-05T12:44:58.292Z,19.50
2018-06-05T12:47:30.917Z,19.40
2018-06-05T12:50:03.923Z,19.40
2018-06-05T12:52:36.170Z,19.40
2018-06-05T12:55:08.352Z,19.40
2018-06-05T12:57:41.125Z,19.60
2018-06-05T13:00:12.638Z,19.90
2018-06-05T13:02:44.816Z,20.00
2018-06-05T13:05:17.528Z,20.20
2018-06-05T13:07:50.440Z,20.00
2018-06-05T13:10:22.628Z,20.00
2018-06-05T13:12:54.630Z,20.00
2018-06-05T13:15:27.180Z,20.00
2018-06-05T13:18:00.004Z,20.20
2018-06-05T13:20:33.665Z,20.20
2018-06-05T13:23:06.977Z,20.20
2018-06-05T13:25:41.004Z,20.30
2018-06-05T13:28:14.892Z,20.40
2018-06-05T13:30:47.350Z,20.50
2018-06-05T13:33:21.424Z,20.50
2018-06-05T13:35:54.470Z,20.40
2018-06-05T13:38:26.872Z,20.50
2018-06-05T13:40:59.409Z,20.40
2018-06-05T13:43:32.240Z,20.40
2018-06-05T13:46:04.422Z,20.20
2018-06-05T13:48:36.547Z,20.10
2018-06-05T13:51:08.799Z,19.90
2018-06-05T13:53:41.739Z,19.80
2018-06-05T13:56:14.546Z,19.70
2018-06-05T13:58:47.583Z,19.90
2018-06-05T14:01:19.887Z,20.00
2018-06-05T14:03:52.455Z,20.00
2018-06-05T14:06:24.548Z,20.10
2018-06-05T14:08:57.203Z,19.90
2018-06-05T14:11:39.186Z,19.80
2018-06-05T14:14:12.283Z,20.20
2018-06-05T14:16:46.593Z,20.70
2018-06-05T14:19:19.171Z,20.70
2018-06-05T14:21:51.969Z,21.00
2018-06-05T14:24:23.935Z,21.10
2018-06-05T14:26:56.140Z,21.00
2018-06-05T14:29:29.400Z,20.80
2018-06-05T14:32:01.356Z,20.50
2018-06-05T14:34:33.417Z,20.20
2018-06-05T14:37:05.563Z,20.00
2018-06-05T14:39:38.757Z,20.00
2018-06-05T14:42:11.388Z,19.90
2018-06-05T14:44:43.416Z,19.80
2018-06-05T14:50:25.279Z,19.80
2018-06-05T14:52:58.308Z,19.80
2018-06-05T14:55:30.977Z,19.70
2018-06-05T14:58:04.411Z,19.60
2018-06-05T15:00:36.541Z,19.50
2018-06-05T15:03:08.583Z,19.50
2018-06-05T15:05:41.823Z,19.30
2018-06-05T15:08:14.215Z,19.40
2018-06-05T15:10:46.369Z,19.40
2018-06-05T15:13:17.642Z,19.40
2018-06-05T15:15:50.393Z,19.60
2018-06-05T15:18:22.529Z,19.60
2018-06-05T15:20:54.457Z,19.50
2018-06-05T15:23:27.143Z,19.50
2018-06-05T15:25:59.885Z,19.40
2018-06-05T15:28:31.825Z,19.10
2018-06-05T15:31:03.787Z,18.90
2018-06-05T15:33:36.075Z,19.00
2018-06-05T15:36:09.030Z,19.00
2018-06-05T15:38:41.041Z,18.90
2018-06-05T15:41:14.235Z,18.90
2018-06-05T15:43:46.814Z,19.00
2018-06-05T15:46:19.159Z,19.10
2018-06-05T15:48:51.912Z,19.20
2018-06-05T15:51:24.562Z,19.10
2018-06-05T15:53:57.701Z,19.00
2018-06-05T15:56:29.711Z,19.10
2018-06-05T15:59:01.437Z,19.10
2018-06-05T16:01:33.941Z,19.10
2018-06-05T16:04:06.999Z,18.90
2018-06-05T16:06:39.129Z,18.80
2018-06-05T16:09:11.347Z,18.80
2018-06-05T16:11:43.981Z,18.90
2018-06-05T16:14:15.929Z,19.10
2018-06-05T16:16:47.993Z,19.40
2018-06-05T16:19:20.846Z,19.60
2018-06-05T16:21:53.531Z,19.40
2018-06-05T16:24:25.696Z,19.20
2018-06-05T16:26:57.757Z,18.90
2018-06-05T16:29:30.468Z,18.60
2018-06-05T16:32:02.487Z,18.50
2018-06-05T16:34:34.421Z,18.20
2018-06-05T16:37:06.647Z,18.20
2018-06-05T16:39:40.099Z,18.10
2018-06-05T16:42:11.405Z,18.00
2018-06-05T16:44:43.017Z,17.90
2018-06-05T16:47:15.159Z,18.00
2018-06-05T16:49:47.957Z,18.20
2018-06-05T16:52:20.005Z,18.40
2018-06-05T16:54:52.052Z,18.70
2018-06-05T16:57:25.988Z,18.90
2018-06-05T16:59:58.699Z,18.90
2018-06-05T17:02:32.055Z,18.70
2018-06-05T17:05:04.169Z,18.50
2018-06-05T17:07:36.429Z,18.40
2018-06-05T17:10:10.142Z,18.10
2018-06-05T17:12:42.403Z,18.00
2018-06-05T17:15:14.478Z,17.90
2018-06-05T17:17:45.809Z,17.80
2018-06-05T17:20:17.937Z,17.80
2018-06-05T17:22:49.856Z,17.90
2018-06-05T17:25:25.474Z,17.90
2018-06-05T17:27:58.147Z,18.00
2018-06-05T17:30:30.545Z,17.90
2018-06-05T17:33:03.204Z,17.90
2018-06-05T17:35:36.576Z,17.90
2018-06-05T17:38:08.774Z,17.90
2018-06-05T17:40:40.952Z,17.90
2018-06-05T17:43:13.507Z,17.80
2018-06-05T17:45:45.607Z,17.80
2018-06-05T17:48:17.549Z,17.70
2018-06-05T17:50:49.676Z,17.70
2018-06-05T17:53:21.151Z,17.70
2018-06-05T17:55:53.478Z,17.70
2018-06-05T17:58:25.448Z,17.60
2018-06-05T18:00:56.933Z,17.60
2018-06-05T18:03:28.865Z,17.50
2018-06-05T18:06:01.428Z,17.50
2018-06-05T18:08:47.511Z,17.40
2018-06-05T18:11:20.179Z,17.40
2018-06-05T18:13:52.299Z,17.30
2018-06-05T18:16:23.970Z,17.30
2018-06-05T18:18:55.420Z,17.20
2018-06-05T18:21:27.478Z,17.10
2018-06-05T18:23:58.902Z,17.00
2018-06-05T18:26:31.346Z,17.00
2018-06-05T18:29:02.923Z,16.90
2018-06-05T18:31:35.097Z,16.90
2018-06-05T18:34:06.510Z,16.80
2018-06-05T18:36:38.039Z,16.70
2018-06-05T18:39:09.380Z,16.60
2018-06-05T18:41:41.796Z,16.50
2018-06-05T18:44:13.150Z,16.40
2018-06-05T18:46:44.610Z,16.20
2018-06-05T18:49:17.020Z,16.00
2018-06-05T18:51:49.101Z,15.80
2018-06-05T18:54:22.970Z,15.70
2018-06-05T18:56:54.531Z,15.50
2018-06-05T18:59:26.698Z,15.40
2018-06-05T19:01:59.192Z,15.30
2018-06-05T19:04:30.562Z,15.20
2018-06-05T19:07:02.064Z,15.10
2018-06-05T19:09:35.355Z,14.90
2018-06-05T19:12:07.900Z,14.80
2018-06-05T19:14:39.906Z,14.70
2018-06-05T19:17:11.990Z,14.60
2018-06-05T19:19:44.362Z,14.50
2018-06-05T19:22:16.264Z,14.30
2018-06-05T19:24:48.198Z,14.20
2018-06-05T19:27:20.646Z,14.10
2018-06-05T19:29:53.262Z,14.00
2018-06-05T19:32:26.032Z,13.90
2018-06-05T19:34:57.652Z,13.90
2018-06-05T19:37:29.664Z,13.80
2018-06-05T19:40:01.661Z,13.70
2018-06-05T19:42:33.031Z,13.60
2018-06-05T19:45:04.424Z,13.50
2018-06-05T19:47:35.838Z,13.50
2018-06-05T19:50:08.115Z,13.40
2018-06-05T19:52:39.666Z,13.30
2018-06-05T19:55:11.428Z,13.20
2018-06-05T19:57:43.746Z,13.20
2018-06-05T20:00:14.407Z,13.10
2018-06-05T20:02:45.936Z,13.00
2018-06-05T20:05:18.289Z,12.90
2018-06-05T20:07:50.648Z,12.80
2018-06-05T20:10:22.152Z,12.70
2018-06-05T20:12:55.077Z,12.60
2018-06-05T20:15:27.116Z,12.50
2018-06-05T20:17:58.767Z,12.40
2018-06-05T20:20:30.164Z,12.30
2018-06-05T20:23:01.681Z,12.20
2018-06-05T20:25:33.946Z,12.20
2018-06-05T20:28:06.156Z,12.20
2018-06-05T20:30:38.714Z,12.10
2018-06-05T20:33:11.270Z,12.10
2018-06-05T20:35:43.071Z,12.10
2018-06-05T20:38:15.736Z,12.00
2018-06-05T20:40:47.172Z,11.90
2018-06-05T20:43:19.347Z,11.80
2018-06-05T20:45:51.466Z,11.70
2018-06-05T20:48:23.964Z,11.70
2018-06-05T20:50:55.504Z,11.70
2018-06-05T20:53:27.464Z,11.60
2018-06-05T20:55:59.677Z,11.50
2018-06-05T20:58:31.214Z,11.50
2018-06-05T21:01:02.758Z,11.50
2018-06-05T21:03:35.108Z,11.40
2018-06-05T21:06:07.605Z,11.40
2018-06-05T21:08:39.253Z,11.40
2018-06-05T21:11:10.706Z,11.30
2018-06-05T21:13:42.074Z,11.30
2018-06-05T21:16:14.071Z,11.20
2018-06-05T21:18:45.585Z,11.20
2018-06-05T21:21:17.505Z,11.10
2018-06-05T21:23:49.499Z,11.00
2018-06-05T21:26:20.946Z,11.00
2018-06-05T21:28:52.568Z,10.90
2018-06-05T21:31:24.652Z,10.90
2018-06-05T21:33:56.399Z,10.90
2018-06-05T21:36:27.943Z,10.90
2018-06-05T21:38:59.281Z,10.90
2018-06-05T21:41:31.027Z,10.90
2018-06-05T21:44:02.686Z,10.90
2018-06-05T21:46:35.358Z,11.00
2018-06-05T21:49:06.970Z,11.00
2018-06-05T21:51:38.957Z,11.00
2018-06-05T21:54:10.919Z,10.90
2018-06-05T21:56:42.473Z,10.80
2018-06-05T21:59:13.906Z,10.80
2018-06-05T22:01:45.909Z,10.70
2018-06-05T22:04:17.105Z,10.70
2018-06-05T22:06:52.724Z,10.70
2018-06-05T22:09:24.960Z,10.70
2018-06-05T22:11:56.966Z,10.60
2018-06-05T22:14:27.586Z,10.60
2018-06-05T22:16:58.975Z,10.60
2018-06-05T22:19:30.920Z,10.50
2018-06-05T22:22:02.825Z,10.50
2018-06-05T22:24:34.118Z,10.50
2018-06-05T22:27:05.545Z,10.50
2018-06-05T22:29:37.656Z,10.50
2018-06-05T22:32:09.141Z,10.40
2018-06-05T22:34:40.350Z,10.30
2018-06-05T22:37:11.801Z,10.30
2018-06-05T22:39:43.961Z,10.30
2018-06-05T22:42:15.194Z,10.30
2018-06-05T22:44:46.505Z,10.30
2018-06-05T22:47:18.345Z,10.30
2018-06-05T22:49:50.663Z,10.30
2018-06-05T22:52:21.807Z,10.30
2018-06-05T22:54:53.268Z,10.40
2018-06-05T22:57:25.181Z,10.40
2018-06-05T22:59:57.086Z,10.30
2018-06-05T23:02:28.556Z,10.30
2018-06-05T23:04:59.536Z,10.20
2018-06-05T23:07:31.431Z,10.20
2018-06-05T23:10:03.517Z,10.20
2018-06-05T23:12:34.956Z,10.20
2018-06-05T23:15:06.728Z,10.20
2018-06-05T23:17:38.839Z,10.20
2018-06-05T23:20:10.397Z,10.10
2018-06-05T23:22:41.597Z,10.10
2018-06-05T23:25:12.946Z,10.00
2018-06-05T23:27:45.158Z,10.00
2018-06-05T23:30:16.557Z,10.00
2018-06-05T23:32:47.841Z,10.00
2018-06-05T23:35:19.865Z,10.00
2018-06-05T23:37:51.827Z,10.00
2018-06-05T23:40:23.095Z,10.00
2018-06-05T23:42:54.470Z,9.90
2018-06-05T23:45:26.584Z,9.90
2018-06-05T23:47:57.835Z,9.80
2018-06-05T23:50:29.139Z,9.80
2018-06-05T23:53:00.414Z,9.80
2018-06-05T23:55:32.598Z,9.80
2018-06-05T23:58:04.599Z,9.80
